Main page
METAR-TAF:

METAR-TAF

Airports :

Bournemouth, England

Bournemouth Airport

latitude: 50-47N, longitude: 001-50W, elevation: 11 m

Current weather observation

The report was made 14 minutes ago, at 13:20 UTC
Wind 10 kt from the West/Northwest
Temperature 12°C
Humidity 88%
Pressure 1017 hPa
Visibility 10 km or more
Few clouds at a height of 2900 ft
Broken clouds at a height of 3600 ft
showers in vicinity

METAR: EGHH 221320Z 29010KT 9999 VCSH FEW029 BKN036 12/10 Q1017

Time: 14:34 (13:34 UTC)

Forecast

The report was made 2 hours and 37 minutes ago, at 10:57 UTC
Forecast valid from 22 at 12 UTC to 22 at 21 UTC
Wind 12 kt from the West
Visibility 10 km or more
Broken clouds at a height of 3500 ft
Temporary
from 22 at 12 UTC to 22 at 16 UTC
Wind 17 kt from the West with gusts up to 27 kt
Visibility: 8000 m
rain showers

TAF: EGHH 221057Z 2212/2221 28012KT 9999 BKN035 TEMPO 2212/2216 28017G27KT 8000 SHRA

Weather observations and forecasts of more than 4000 airports (METAR and TAF reports).

The available stations are represented by yellow and red dots on the map.

Hover mouse over dot to see the name of the station.

Then click to see weather observations and forecasts.

To change the map : click on the green buttons with a black cross to zoom in, on the green button with a dash to zoom out, or on the green arrows for adjacent maps.


METAR-TAF: